Time;durP1;ratioP1;P1;durP2;ratioP2;P2;SDS_P1;SDS_P2;PMS_P1;PMS_P2;Temp;Humidity;BMP_temperature;BMP_pressure;BME280_temperature;BME280_humidity;BME280_pressure;Samples;Min_cycle;Max_cycle;Signal;HPM_P1;HPM_P2
2023/12/16 00:01:39;;;;;;;8.37;7.00;;;;;;;6.26;100.00;100328.06;5094684;28;20199;-74
2023/12/16 00:04:05;;;;;;;7.70;6.57;;;;;;;6.26;100.00;100331.56;5095770;28;20210;-74
2023/12/16 00:06:32;;;;;;;10.77;7.80;;;;;;;6.22;100.00;100345.16;5094258;28;20207;-74
2023/12/16 00:08:58;;;;;;;9.10;7.10;;;;;;;6.27;100.00;100356.16;5094714;28;20221;-74
2023/12/16 00:11:25;;;;;;;8.40;7.27;;;;;;;6.31;100.00;100346.97;5093569;28;20219;-74
2023/12/16 00:13:51;;;;;;;7.53;6.73;;;;;;;6.23;100.00;100338.91;5094658;28;20236;-74
2023/12/16 00:16:18;;;;;;;7.73;6.70;;;;;;;6.20;100.00;100333.91;5094517;28;20207;-74
2023/12/16 00:18:44;;;;;;;8.87;6.80;;;;;;;6.23;100.00;100338.91;5094048;28;20683;-74
2023/12/16 00:21:10;;;;;;;7.50;6.17;;;;;;;6.26;100.00;100343.91;5094124;28;20679;-74
2023/12/16 00:23:37;;;;;;;7.33;5.97;;;;;;;6.25;100.00;100334.31;5094409;28;20551;-74
2023/12/16 00:26:03;;;;;;;6.80;5.67;;;;;;;6.22;100.00;100331.94;5094399;28;20542;-74
2023/12/16 00:28:29;;;;;;;6.70;5.27;;;;;;;6.21;100.00;100340.84;5094375;28;20210;-74
2023/12/16 00:30:56;;;;;;;5.60;4.70;;;;;;;6.15;100.00;100331.66;5094096;28;20226;-74
2023/12/16 00:33:22;;;;;;;6.30;5.40;;;;;;;6.12;100.00;100337.22;5093985;28;20212;-74
2023/12/16 00:35:48;;;;;;;9.33;5.77;;;;;;;6.15;100.00;100336.13;5094022;28;20208;-74
2023/12/16 00:38:15;;;;;;;6.20;5.60;;;;;;;6.09;100.00;100332.22;5093861;28;20203;-74
2023/12/16 00:40:42;;;;;;;7.50;5.30;;;;;;;6.04;100.00;100333.56;5094043;28;20227;-74
2023/12/16 00:43:08;;;;;;;6.77;5.53;;;;;;;6.02;100.00;100331.06;5094091;28;20261;-74
2023/12/16 00:45:35;;;;;;;7.27;5.53;;;;;;;6.06;100.00;100340.41;5093749;28;20235;-74
2023/12/16 00:48:01;;;;;;;6.60;5.83;;;;;;;6.05;100.00;100345.81;5093796;28;20593;-74
2023/12/16 00:50:27;;;;;;;8.03;5.73;;;;;;;6.05;100.00;100344.00;5093814;28;20236;-74
2023/12/16 00:52:54;;;;;;;8.83;6.13;;;;;;;6.05;100.00;100341.38;5093849;28;20226;-74
2023/12/16 00:55:20;;;;;;;6.73;6.00;;;;;;;6.06;100.00;100348.31;5093884;28;20226;-74
2023/12/16 00:57:46;;;;;;;9.07;6.10;;;;;;;6.04;100.00;100354.69;5093846;28;20214;-74
2023/12/16 01:00:13;;;;;;;7.20;6.03;;;;;;;6.03;100.00;100353.88;5093767;28;20216;-74
2023/12/16 01:02:39;;;;;;;10.27;7.33;;;;;;;6.03;100.00;100358.31;5093780;28;20203;-74
2023/12/16 01:05:06;;;;;;;7.70;6.20;;;;;;;6.09;100.00;100365.69;5093714;28;20200;-74
2023/12/16 01:07:32;;;;;;;8.50;6.37;;;;;;;6.07;100.00;100375.56;5093391;28;20210;-74
2023/12/16 01:09:58;;;;;;;9.13;6.90;;;;;;;6.01;100.00;100384.84;5093118;28;20225;-74
2023/12/16 01:12:25;;;;;;;8.33;6.90;;;;;;;6.04;100.00;100386.38;5093474;28;20225;-74
2023/12/16 01:14:51;;;;;;;9.27;6.90;;;;;;;6.02;100.00;100389.16;5093265;28;20210;-74
2023/12/16 01:17:18;;;;;;;9.83;7.27;;;;;;;6.03;100.00;100382.94;5093600;28;20295;-74
2023/12/16 01:19:44;;;;;;;7.80;7.00;;;;;;;6.06;100.00;100389.75;5093244;28;20650;-74
2023/12/16 01:22:10;;;;;;;9.90;7.40;;;;;;;6.09;100.00;100387.66;5094243;28;20199;-74
2023/12/16 01:24:37;;;;;;;11.87;7.37;;;;;;;6.06;100.00;100380.00;5097790;28;20200;-74
2023/12/16 01:27:05;;;;;;;9.07;7.93;;;;;;;6.05;100.00;100388.06;5097539;28;20570;-74
2023/12/16 01:29:31;;;;;;;8.20;7.40;;;;;;;6.07;100.00;100384.31;5097675;28;20232;-74
2023/12/16 01:31:58;;;;;;;8.07;7.27;;;;;;;6.08;100.00;100393.94;5097225;28;20227;-74
2023/12/16 01:34:24;;;;;;;9.87;7.23;;;;;;;6.08;100.00;100393.06;5097517;28;20205;-74
2023/12/16 01:36:50;;;;;;;9.10;7.37;;;;;;;6.10;100.00;100396.44;5097380;28;20207;-74
2023/12/16 01:39:17;;;;;;;8.90;7.23;;;;;;;6.05;100.00;100365.13;5097419;28;20223;-74
2023/12/16 01:41:43;;;;;;;10.47;7.47;;;;;;;6.06;100.00;100374.72;5097559;28;20200;-74
2023/12/16 01:44:10;;;;;;;11.20;7.70;;;;;;;6.06;100.00;100374.72;5097486;28;20211;-74
2023/12/16 01:46:36;;;;;;;8.40;7.50;;;;;;;6.04;100.00;100375.81;5097487;28;20206;-74
2023/12/16 01:49:03;;;;;;;8.30;7.47;;;;;;;6.00;100.00;100363.84;5097022;28;20719;-74
2023/12/16 01:51:32;;;;;;;8.30;7.50;;;;;;;5.99;100.00;100375.41;5097349;28;20237;-74
2023/12/16 01:53:59;;;;;;;8.43;7.50;;;;;;;5.99;100.00;100372.75;5097377;28;20588;-74
2023/12/16 01:56:28;;;;;;;8.37;7.33;;;;;;;6.01;100.00;100376.94;5097264;28;20208;-74
2023/12/16 01:58:55;;;;;;;8.17;7.37;;;;;;;6.00;100.00;100359.44;5097220;28;20206;-74
2023/12/16 02:01:21;;;;;;;9.73;7.00;;;;;;;5.99;100.00;100372.75;5079189;28;20196;-74
2023/12/16 02:03:48;;;;;;;9.13;7.53;;;;;;;5.97;100.00;100380.00;5097181;28;20211;-74
2023/12/16 02:06:15;;;;;;;8.50;7.13;;;;;;;5.95;100.00;100376.63;5096664;28;20675;-74
2023/12/16 02:08:42;;;;;;;8.53;7.53;;;;;;;5.93;100.00;100378.59;5096608;28;20663;-74
2023/12/16 02:11:10;;;;;;;10.87;7.80;;;;;;;5.89;100.00;100380.63;5096614;28;20227;-74
2023/12/16 02:13:37;;;;;;;8.33;7.53;;;;;;;5.89;100.00;100382.44;5097046;28;20204;-74
2023/12/16 02:16:04;;;;;;;9.93;8.00;;;;;;;5.75;100.00;100375.69;5097247;28;20200;-74
2023/12/16 02:18:31;;;;;;;8.70;7.33;;;;;;;5.78;100.00;100379.84;5096317;28;20204;-74
2023/12/16 02:20:58;;;;;;;9.77;7.97;;;;;;;5.78;100.00;100380.69;5096755;28;20220;-74
2023/12/16 02:23:24;;;;;;;13.57;7.47;;;;;;;5.80;100.00;100380.56;5096521;28;20574;-74
2023/12/16 02:25:50;;;;;;;9.00;8.10;;;;;;;5.84;100.00;100387.28;5096387;28;20586;-74
2023/12/16 02:28:17;;;;;;;13.23;7.83;;;;;;;5.82;100.00;100383.94;5096316;28;20670;-74
2023/12/16 02:30:43;;;;;;;8.60;7.33;;;;;;;5.83;100.00;100393.56;5096190;28;20701;-74
2023/12/16 02:33:09;;;;;;;10.10;7.20;;;;;;;5.83;100.00;100404.94;5096343;28;20215;-74
2023/12/16 02:35:36;;;;;;;8.40;7.50;;;;;;;5.87;100.00;100400.22;5095528;28;20208;-74
2023/12/16 02:38:03;;;;;;;11.00;7.40;;;;;;;5.89;100.00;100408.84;5096453;28;20203;-74
2023/12/16 02:40:29;;;;;;;11.07;7.90;;;;;;;5.88;100.00;100400.09;5095935;28;20224;-74
2023/12/16 02:42:55;;;;;;;10.43;8.37;;;;;;;5.87;100.00;100398.41;5096410;28;20226;-74
2023/12/16 02:45:22;;;;;;;9.57;8.33;;;;;;;5.86;100.00;100398.53;5096623;28;20206;-74
2023/12/16 02:47:48;;;;;;;10.70;8.03;;;;;;;5.86;100.00;100398.53;5095982;28;20208;-74
2023/12/16 02:50:14;;;;;;;8.53;7.63;;;;;;;5.89;100.00;100400.94;5096250;28;20233;-74
2023/12/16 02:52:41;;;;;;;9.53;7.50;;;;;;;5.87;100.00;100389.66;5096258;28;20625;-74
2023/12/16 02:55:07;;;;;;;8.87;7.80;;;;;;;5.85;100.00;100391.59;5096155;28;20562;-74
2023/12/16 02:57:34;;;;;;;8.23;7.40;;;;;;;5.92;100.00;100387.47;5096076;28;20572;-74
2023/12/16 03:00:00;;;;;;;8.77;7.33;;;;;;;5.93;100.00;100389.97;5095714;28;20721;-74
2023/12/16 03:02:26;;;;;;;10.63;8.13;;;;;;;5.91;100.00;100393.69;5095741;28;20697;-74
2023/12/16 03:04:53;;;;;;;9.77;7.60;;;;;;;5.88;100.00;100400.09;5095641;28;20208;-74
2023/12/16 03:07:19;;;;;;;8.20;7.30;;;;;;;5.86;100.00;100399.41;5095480;28;20214;-74
2023/12/16 03:09:45;;;;;;;9.93;8.03;;;;;;;5.86;100.00;100402.03;5096328;28;20234;-74
2023/12/16 03:12:12;;;;;;;8.30;7.40;;;;;;;5.86;100.00;100404.69;5095420;28;20219;-74
2023/12/16 03:14:41;;;;;;;10.27;8.13;;;;;;;5.85;100.00;100408.28;5095798;28;20287;-74
2023/12/16 03:17:07;;;;;;;8.30;7.50;;;;;;;5.84;100.00;100414.50;5095758;28;20261;-74
2023/12/16 03:19:33;;;;;;;8.67;7.80;;;;;;;5.81;100.00;100414.78;5095582;28;20223;-74
2023/12/16 03:22:00;;;;;;;8.30;7.37;;;;;;;5.85;100.00;100410.09;5095638;28;20210;-74
2023/12/16 03:24:26;;;;;;;9.03;7.03;;;;;;;5.80;100.00;100409.63;5095585;28;20203;-74
2023/12/16 03:26:52;;;;;;;8.00;6.90;;;;;;;5.79;100.00;100408.75;5095553;28;20207;-74
2023/12/16 03:29:19;;;;;;;8.17;7.17;;;;;;;5.79;100.00;100414.03;5095437;28;20220;-74
2023/12/16 03:31:45;;;;;;;9.13;6.90;;;;;;;5.77;100.00;100407.22;5095321;28;20219;-74
2023/12/16 03:34:11;;;;;;;11.57;6.80;;;;;;;5.82;100.00;100405.06;5096237;28;20207;-74
2023/12/16 03:36:38;;;;;;;8.00;6.83;;;;;;;5.81;100.00;100400.75;5095331;28;20211;-74
2023/12/16 03:39:04;;;;;;;8.23;6.97;;;;;;;5.78;100.00;100401.81;5095297;28;20227;-74
2023/12/16 03:41:31;;;;;;;9.67;7.07;;;;;;;5.84;100.00;100405.78;5095201;28;20211;-74
2023/12/16 03:43:58;;;;;;;7.90;6.90;;;;;;;5.83;100.00;100407.56;5094968;28;20674;-74
2023/12/16 03:46:24;;;;;;;8.80;6.60;;;;;;;5.84;100.00;100406.59;5094211;28;20287;-74
2023/12/16 03:48:50;;;;;;;9.53;7.77;;;;;;;5.85;100.00;100404.81;5094821;28;20211;-74
2023/12/16 03:51:17;;;;;;;9.70;8.23;;;;;;;5.86;100.00;100402.03;5094687;28;20223;-74
2023/12/16 03:53:43;;;;;;;8.93;7.17;;;;;;;5.89;100.00;100408.84;5094786;28;20207;-74
2023/12/16 03:56:09;;;;;;;8.67;7.00;;;;;;;5.87;100.00;100402.84;5094950;28;20208;-74
2023/12/16 03:58:36;;;;;;;7.83;6.73;;;;;;;5.84;100.00;100406.59;5094957;28;20204;-74
2023/12/16 04:01:02;;;;;;;7.33;6.60;;;;;;;5.84;100.00;100403.94;5094832;28;20200;-74
2023/12/16 04:03:28;;;;;;;10.10;7.53;;;;;;;5.84;100.00;100411.06;5094754;28;20214;-74
2023/12/16 04:05:55;;;;;;;9.60;7.53;;;;;;;5.80;100.00;100406.97;5094579;28;20291;-74
2023/12/16 04:08:21;;;;;;;9.97;7.40;;;;;;;5.79;100.00;100403.47;5094397;28;20203;-74
2023/12/16 04:10:48;;;;;;;9.40;7.17;;;;;;;5.81;100.00;100412.16;5094065;28;20224;-74
2023/12/16 04:13:15;;;;;;;9.77;7.37;;;;;;;5.82;100.00;100403.25;5094197;28;20624;-74
2023/12/16 04:15:41;;;;;;;9.33;7.50;;;;;;;5.83;100.00;100417.31;5094433;28;20207;-74
2023/12/16 04:18:08;;;;;;;7.90;7.10;;;;;;;5.86;100.00;100414.38;5094408;28;20204;-74
2023/12/16 04:20:34;;;;;;;7.67;6.83;;;;;;;5.88;100.00;100408.00;5094211;28;20223;-74
2023/12/16 04:22:59;;;;;;;8.80;7.23;;;;;;;5.83;100.00;100415.50;5094215;28;20301;-74
2023/12/16 04:25:26;;;;;;;9.10;6.80;;;;;;;5.88;100.00;100415.91;5094392;28;20553;-74
2023/12/16 04:27:52;;;;;;;7.47;6.70;;;;;;;5.92;100.00;100419.16;5094058;28;20210;-74
2023/12/16 04:30:18;;;;;;;7.70;6.90;;;;;;;5.88;100.00;100421.19;5094980;28;20585;-74
2023/12/16 04:32:45;;;;;;;7.60;6.80;;;;;;;5.83;100.00;100420.78;5094153;28;20229;-74
2023/12/16 04:35:11;;;;;;;6.60;5.97;;;;;;;5.87;100.00;100413.41;5094223;28;20200;-74
2023/12/16 04:37:37;;;;;;;7.13;4.97;;;;;;;5.85;100.00;100413.56;5094114;28;20203;-74
2023/12/16 04:40:05;;;;;;;6.10;5.17;;;;;;;5.81;100.00;100411.31;5094019;28;20250;-74
2023/12/16 04:42:31;;;;;;;5.87;5.13;;;;;;;5.74;100.00;100413.59;5093657;28;20666;-74
2023/12/16 04:44:57;;;;;;;4.63;4.23;;;;;;;5.75;100.00;100414.44;5093596;28;20208;-74
2023/12/16 04:47:24;;;;;;;7.40;5.20;;;;;;;5.79;100.00;100414.03;5093579;28;20215;-74
2023/12/16 04:49:50;;;;;;;5.27;4.77;;;;;;;5.74;100.00;100407.50;5093593;28;20733;-74
2023/12/16 04:52:17;;;;;;;5.87;5.10;;;;;;;5.82;100.00;100418.25;5093498;28;20223;-74
2023/12/16 04:54:44;;;;;;;5.83;5.07;;;;;;;5.82;100.00;100415.63;5093938;28;20257;-74
2023/12/16 04:57:11;;;;;;;6.20;5.60;;;;;;;5.81;100.00;100421.88;5093668;28;20214;-74
2023/12/16 04:59:36;;;;;;;6.13;4.80;;;;;;;5.79;100.00;100418.50;5093508;28;20654;-74
2023/12/16 05:02:03;;;;;;;4.73;4.30;;;;;;;5.73;100.00;100411.09;5093864;28;20200;-74
2023/12/16 05:04:29;;;;;;;5.33;3.80;;;;;;;5.74;100.00;100415.44;5093794;28;20204;-74
2023/12/16 05:06:56;;;;;;;4.57;3.60;;;;;;;5.74;100.00;100415.44;5093675;28;20212;-74
2023/12/16 05:09:22;;;;;;;4.13;3.73;;;;;;;5.73;100.00;100416.38;5093349;28;20227;-74
2023/12/16 05:11:48;;;;;;;4.33;3.90;;;;;;;5.73;100.00;100419.84;5093360;28;20220;-74
2023/12/16 05:14:15;;;;;;;4.83;3.63;;;;;;;5.76;100.00;100424.88;5093552;28;20204;-74
2023/12/16 05:16:41;;;;;;;3.70;3.40;;;;;;;5.76;100.00;100429.31;5093524;28;20204;-74
2023/12/16 05:19:07;;;;;;;4.27;3.87;;;;;;;5.76;100.00;100430.16;5093490;28;20226;-74
2023/12/16 05:21:34;;;;;;;4.07;3.77;;;;;;;5.72;100.00;100419.97;5093253;28;20667;-74
2023/12/16 05:24:00;;;;;;;4.23;3.83;;;;;;;5.77;100.00;100425.69;5093518;28;20203;-74
2023/12/16 05:26:26;;;;;;;4.77;3.90;;;;;;;5.80;100.00;100421.06;5093454;28;20203;-74
2023/12/16 05:28:53;;;;;;;5.03;3.57;;;;;;;5.76;100.00;100426.66;5093164;28;20214;-74
2023/12/16 05:31:19;;;;;;;5.30;3.43;;;;;;;5.76;100.00;100426.66;5093286;28;20215;-74
2023/12/16 05:33:46;;;;;;;3.60;3.30;;;;;;;5.77;100.00;100420.41;5093560;28;20200;-74
2023/12/16 05:36:12;;;;;;;4.33;3.70;;;;;;;5.71;100.00;100421.81;5093470;28;20212;-74
2023/12/16 05:38:39;;;;;;;4.50;3.27;;;;;;;5.68;100.00;100426.47;5093059;28;20307;-74
2023/12/16 05:41:06;;;;;;;4.23;3.60;;;;;;;5.62;100.00;100427.88;5093126;28;20572;-74
2023/12/16 05:43:33;;;;;;;4.13;3.70;;;;;;;5.63;100.00;100423.41;5092777;28;20204;-74
2023/12/16 05:45:59;;;;;;;4.17;3.50;;;;;;;5.64;100.00;100425.06;5093159;28;20210;-74
2023/12/16 05:48:26;;;;;;;5.07;3.30;;;;;;;5.56;100.00;100430.19;5092874;28;20583;-74
2023/12/16 05:50:52;;;;;;;4.77;3.67;;;;;;;5.57;100.00;100423.94;5093151;28;20226;-74
2023/12/16 05:53:18;;;;;;;3.50;3.20;;;;;;;5.57;100.00;100424.75;5093183;28;20224;-74
2023/12/16 05:55:47;;;;;;;3.87;3.57;;;;;;;5.55;100.00;100429.34;5093280;28;20211;-74
2023/12/16 05:58:13;;;;;;;4.67;3.60;;;;;;;5.57;100.00;100423.94;5092919;28;20208;-74
2023/12/16 06:00:40;;;;;;;4.27;3.87;;;;;;;5.57;100.00;100421.28;5093093;28;20256;-74
2023/12/16 06:03:06;;;;;;;4.17;3.73;;;;;;;5.49;100.00;100418.47;5093265;28;20200;-74
2023/12/16 06:05:32;;;;;;;3.87;3.40;;;;;;;5.48;100.00;100430.81;5093148;28;20211;-74
2023/12/16 06:07:59;;;;;;;4.23;3.30;;;;;;;5.49;100.00;100429.00;5092958;28;20211;-74
2023/12/16 06:10:25;;;;;;;3.50;3.20;;;;;;;5.45;100.00;100424.97;5095468;28;20228;-74
2023/12/16 06:12:51;;;;;;;4.57;3.13;;;;;;;5.55;100.00;100436.41;5096839;28;20228;-74
2023/12/16 06:15:18;;;;;;;5.30;3.40;;;;;;;5.53;100.00;100443.63;5096797;28;20210;-74
2023/12/16 06:17:44;;;;;;;3.40;3.10;;;;;;;5.55;100.00;100439.03;5096778;28;20215;-74
2023/12/16 06:20:11;;;;;;;3.23;2.80;;;;;;;5.53;100.00;100443.63;5096786;28;20224;-74
2023/12/16 06:22:37;;;;;;;4.20;3.40;;;;;;;5.48;100.00;100451.91;5096861;28;20235;-74
2023/12/16 06:25:04;;;;;;;3.00;2.70;;;;;;;5.47;100.00;100444.16;5096614;28;20212;-74
2023/12/16 06:27:31;;;;;;;5.47;3.30;;;;;;;5.48;100.00;100448.47;5096715;28;20204;-74
2023/12/16 06:29:57;;;;;;;3.40;3.10;;;;;;;5.45;100.00;100440.78;5096360;28;20224;-74
2023/12/16 06:32:24;;;;;;;4.13;3.57;;;;;;;5.44;100.00;100444.41;5096584;28;20226;-74
2023/12/16 06:34:50;;;;;;;3.40;3.10;;;;;;;5.42;100.00;100455.06;5096624;28;20206;-74
2023/12/16 06:37:16;;;;;;;3.80;3.00;;;;;;;5.37;100.00;100464.31;5096412;28;20207;-74
2023/12/16 06:39:43;;;;;;;4.97;3.40;;;;;;;5.34;100.00;100464.59;5096213;28;20219;-74
2023/12/16 06:42:09;;;;;;;3.07;2.87;;;;;;;5.37;100.00;100466.97;5096222;28;20200;-74
2023/12/16 06:44:36;;;;;;;3.70;3.20;;;;;;;5.36;100.00;100467.94;5096326;28;20238;-74
2023/12/16 06:47:03;;;;;;;3.70;3.30;;;;;;;5.40;100.00;100466.72;5095843;28;20686;-74
2023/12/16 06:49:29;;;;;;;4.70;3.30;;;;;;;5.38;100.00;100466.03;5096094;28;20220;-74
2023/12/16 06:51:55;;;;;;;4.07;3.73;;;;;;;5.27;100.00;100466.91;5095712;28;20600;-74
2023/12/16 06:54:22;;;;;;;3.63;3.27;;;;;;;5.28;100.00;100470.38;5095838;28;20671;-74
2023/12/16 06:56:49;;;;;;;4.10;3.70;;;;;;;5.29;100.00;100469.44;5096087;28;20214;-74
2023/12/16 06:59:17;;;;;;;3.47;3.17;;;;;;;5.29;100.00;100458.88;5096002;28;20250;-74
2023/12/16 07:01:43;;;;;;;3.47;3.17;;;;;;;5.21;100.00;100464.75;5095879;28;20261;-74
2023/12/16 07:04:10;;;;;;;4.17;3.20;;;;;;;5.25;100.00;100462.72;5095548;28;20563;-74
2023/12/16 07:06:36;;;;;;;4.23;3.13;;;;;;;5.26;100.00;100467.88;5095894;28;20577;-74
2023/12/16 07:09:03;;;;;;;3.40;3.10;;;;;;;5.24;100.00;100463.69;5095269;28;20231;-74
2023/12/16 07:11:29;;;;;;;3.47;3.10;;;;;;;5.27;100.00;100468.69;5095612;28;20203;-74
2023/12/16 07:13:56;;;;;;;4.70;3.90;;;;;;;5.33;100.00;100468.22;5095316;28;20569;-74
2023/12/16 07:16:22;;;;;;;5.57;3.83;;;;;;;5.31;100.00;100462.22;5095376;28;20670;-74
2023/12/16 07:18:48;;;;;;;3.90;3.60;;;;;;;5.32;100.00;100472.63;5095856;28;20206;-74
2023/12/16 07:21:15;;;;;;;5.70;3.90;;;;;;;5.30;100.00;100479.00;5095393;28;20207;-74
2023/12/16 07:23:41;;;;;;;4.93;4.40;;;;;;;5.29;100.00;100482.63;5095406;28;20207;-74
2023/12/16 07:26:07;;;;;;;6.63;4.37;;;;;;;5.28;100.00;100480.91;5095398;28;20204;-74
2023/12/16 07:28:34;;;;;;;4.90;4.40;;;;;;;5.30;100.00;100481.66;5095323;28;20566;-74
2023/12/16 07:31:00;;;;;;;4.00;3.70;;;;;;;5.31;100.00;100478.03;5095212;28;20223;-74
2023/12/16 07:33:27;;;;;;;3.80;3.50;;;;;;;5.34;100.00;100483.06;5095212;28;20326;-74
2023/12/16 07:35:53;;;;;;;4.37;3.97;;;;;;;5.40;100.00;100477.28;5095206;28;20206;-74
2023/12/16 07:38:19;;;;;;;6.50;4.27;;;;;;;5.42;100.00;100478.00;5095144;28;20211;-74
2023/12/16 07:40:46;;;;;;;4.67;3.80;;;;;;;5.40;100.00;100485.19;5095030;28;20228;-74
2023/12/16 07:43:12;;;;;;;5.50;4.23;;;;;;;5.38;100.00;100471.31;5094582;28;20223;-74
2023/12/16 07:45:38;;;;;;;4.90;3.90;;;;;;;5.44;100.00;100476.06;5094728;28;20203;-74
2023/12/16 07:48:05;;;;;;;4.00;3.53;;;;;;;5.46;100.00;100479.38;5094426;28;20215;-74
2023/12/16 07:50:31;;;;;;;3.90;3.60;;;;;;;5.50;100.00;100483.44;5094715;28;20240;-74
2023/12/16 07:52:58;;;;;;;5.10;3.90;;;;;;;5.51;100.00;100493.03;5094771;28;20219;-74
2023/12/16 07:55:27;;;;;;;5.90;4.43;;;;;;;5.54;100.00;100492.78;5094473;28;20214;-74
2023/12/16 07:57:53;;;;;;;6.50;4.83;;;;;;;5.63;100.00;100492.88;5094721;28;20295;-74
2023/12/16 08:00:20;;;;;;;6.37;5.30;;;;;;;5.62;100.00;100503.53;5094365;28;20763;-74
2023/12/16 08:02:47;;;;;;;5.67;5.07;;;;;;;5.65;100.00;100509.41;5094554;28;20204;-74
2023/12/16 08:05:13;;;;;;;6.03;4.90;;;;;;;5.70;100.00;100503.75;5094308;28;20208;-74
2023/12/16 08:07:41;;;;;;;5.67;5.07;;;;;;;5.69;100.00;100502.06;5094425;28;20226;-74
2023/12/16 08:10:07;;;;;;;6.67;5.63;;;;;;;5.74;100.00;100513.09;5094449;28;20300;-74
2023/12/16 08:12:34;;;;;;;6.83;5.10;;;;;;;5.72;100.00;100512.34;5094553;28;20628;-74
2023/12/16 08:15:02;;;;;;;5.20;4.70;;;;;;;5.70;100.00;100519.59;5094861;28;20208;-74
2023/12/16 08:17:28;;;;;;;5.13;4.63;;;;;;;5.86;100.00;100526.13;5094211;28;20208;-74
2023/12/16 08:19:55;;;;;;;6.87;4.83;;;;;;;5.84;100.00;100532.50;5093977;28;20722;-74
2023/12/16 08:22:22;;;;;;;5.73;4.90;;;;;;;5.80;100.00;100525.75;5094033;28;20200;-74
2023/12/16 08:24:48;;;;;;;5.77;4.80;;;;;;;5.78;100.00;100530.31;5094255;28;20208;-74
2023/12/16 08:27:14;;;;;;;5.90;5.13;;;;;;;5.85;100.00;100526.25;5094328;28;20199;-74
2023/12/16 08:29:41;;;;;;;5.70;4.93;;;;;;;5.84;100.00;100530.66;5093758;28;20239;-74
2023/12/16 08:32:07;;;;;;;6.37;4.47;;;;;;;5.86;100.00;100535.81;5093482;28;20246;-74
2023/12/16 08:34:34;;;;;;;7.33;5.03;;;;;;;5.90;100.00;100543.38;5093682;28;20363;-74
2023/12/16 08:37:01;;;;;;;5.50;4.27;;;;;;;5.98;100.00;100545.38;5093627;28;20705;-74
2023/12/16 08:39:27;;;;;;;5.63;5.03;;;;;;;5.94;100.00;100541.31;5093427;28;20289;-74
2023/12/16 08:41:53;;;;;;;5.43;4.93;;;;;;;6.00;100.00;100549.53;5093486;28;20207;-74
2023/12/16 08:44:20;;;;;;;5.73;5.00;;;;;;;6.07;100.00;100550.69;5093372;28;20204;-74
2023/12/16 08:46:46;;;;;;;6.30;5.20;;;;;;;6.01;100.00;100555.69;5093746;28;20555;-74
2023/12/16 08:49:12;;;;;;;5.57;5.07;;;;;;;5.99;100.00;100562.88;5093234;28;20728;-74
2023/12/16 08:51:39;;;;;;;5.80;5.13;;;;;;;5.98;100.00;100569.13;5093716;28;20210;-74
2023/12/16 08:54:05;;;;;;;6.03;4.97;;;;;;;6.02;100.00;100560.81;5094241;28;20224;-74
2023/12/16 08:56:31;;;;;;;6.03;4.50;;;;;;;6.15;100.00;100564.09;5093760;28;20204;-74
2023/12/16 08:58:58;;;;;;;5.73;4.93;;;;;;;6.09;100.00;100561.13;5093605;28;20226;-74
2023/12/16 09:01:24;;;;;;;7.17;4.70;;;;;;;6.08;100.00;100567.38;5093664;28;20199;-74
2023/12/16 09:03:50;;;;;;;6.27;4.50;;;;;;;6.06;100.00;100571.97;5093644;28;20204;-74
2023/12/16 09:06:17;;;;;;;5.83;4.67;;;;;;;6.13;100.00;100567.81;5093551;28;20565;-74
2023/12/16 09:08:43;;;;;;;5.03;4.43;;;;;;;6.08;100.00;100572.66;5093483;28;20208;-75
2023/12/16 09:11:10;;;;;;;6.33;4.83;;;;;;;6.16;100.00;100565.75;5093660;28;20233;-74
2023/12/16 09:13:37;;;;;;;5.10;4.60;;;;;;;6.11;100.00;100572.41;5093276;28;20223;-74
2023/12/16 09:16:04;;;;;;;5.50;5.00;;;;;;;6.11;100.00;100582.97;5093409;28;20212;-74
2023/12/16 09:18:30;;;;;;;4.70;4.30;;;;;;;6.22;100.00;100583.75;5093260;28;20253;-74
2023/12/16 09:20:56;;;;;;;6.17;5.27;;;;;;;6.22;100.00;100590.81;5093433;28;20302;-74
2023/12/16 09:23:23;;;;;;;6.53;4.73;;;;;;;6.44;100.00;100591.53;5093137;28;20215;-74
2023/12/16 09:25:49;;;;;;;5.47;4.73;;;;;;;6.35;100.00;100600.22;5092915;28;20213;-74
2023/12/16 09:28:16;;;;;;;5.43;4.73;;;;;;;6.27;100.00;100600.03;5092738;28;20216;-74
2023/12/16 09:30:42;;;;;;;6.67;4.87;;;;;;;6.24;100.00;100597.66;5093075;28;20221;-74
2023/12/16 09:33:09;;;;;;;5.40;4.73;;;;;;;6.27;100.00;100594.75;5093477;28;20604;-74
2023/12/16 09:35:35;;;;;;;5.53;4.67;;;;;;;6.32;100.00;100597.00;5093398;28;20566;-74
2023/12/16 09:38:03;;;;;;;5.10;4.53;;;;;;;6.32;100.00;100597.00;5093039;28;20765;-74
2023/12/16 09:40:29;;;;;;;4.93;4.40;;;;;;;6.34;100.00;100595.06;5093251;28;20301;-74
2023/12/16 09:43:15;;;;;;;5.27;4.77;;;;;;;6.50;100.00;100601.56;5093119;28;20265;-74
2023/12/16 09:45:42;;;;;;;5.80;4.47;;;;;;;6.66;100.00;100601.88;5080361;28;20192;-74
2023/12/16 09:48:08;;;;;;;5.63;5.07;;;;;;;6.48;100.00;100602.66;5096842;28;20632;-74
2023/12/16 09:50:36;;;;;;;5.10;4.60;;;;;;;6.51;100.00;100595.28;5097074;28;20608;-74
2023/12/16 09:53:03;;;;;;;5.43;4.93;;;;;;;6.52;100.00;100599.59;5097487;28;20227;-74
2023/12/16 09:55:29;;;;;;;6.90;5.23;;;;;;;6.54;100.00;100592.41;5097067;28;20290;-74
2023/12/16 09:57:59;;;;;;;5.97;4.70;;;;;;;6.58;100.00;100592.97;5097215;28;20202;-74
2023/12/16 10:00:28;;;;;;;5.40;4.90;;;;;;;6.59;100.00;100595.47;5096364;28;20716;-74
2023/12/16 10:02:56;;;;;;;7.97;4.97;;;;;;;6.61;100.00;100596.16;5096672;28;20205;-74
2023/12/16 10:05:26;;;;;;;6.93;4.77;;;;;;;6.62;100.00;100597.03;5097007;28;20213;-74
2023/12/16 10:08:04;;;;;;;5.50;5.00;;;;;;;6.60;100.00;100591.03;5096978;28;20256;-74
2023/12/16 10:10:30;;;;;;;5.97;4.87;;;;;;;6.57;100.00;100589.50;5096961;28;20326;-74
2023/12/16 10:13:03;;;;;;;5.17;4.67;;;;;;;6.68;100.00;100588.53;5096655;28;20269;-74
2023/12/16 10:15:31;;;;;;;5.57;5.07;;;;;;;6.68;100.00;100584.09;5096798;28;20196;-74
2023/12/16 10:17:58;;;;;;;6.73;4.67;;;;;;;6.91;100.00;100593.50;5096752;28;20293;-74
2023/12/16 10:20:24;;;;;;;5.60;5.00;;;;;;;6.73;100.00;100587.19;5096581;28;20226;-74
2023/12/16 10:22:50;;;;;;;5.87;5.27;;;;;;;6.84;100.00;100584.44;5096818;28;20200;-74
2023/12/16 10:25:18;;;;;;;5.37;4.80;;;;;;;6.92;100.00;100586.44;5096622;28;20210;-74
2023/12/16 10:27:44;;;;;;;5.17;4.67;;;;;;;6.84;100.00;100580.97;5096245;28;20211;-74
2023/12/16 10:30:11;;;;;;;5.33;4.57;;;;;;;6.89;100.00;100581.41;5095981;28;20230;-74
2023/12/16 10:32:41;;;;;;;6.03;5.07;;;;;;;6.89;100.00;100581.41;5096049;28;20229;-74
2023/12/16 10:35:08;;;;;;;7.43;5.17;;;;;;;6.98;100.00;100575.31;5096503;28;20204;-74
2023/12/16 10:37:37;;;;;;;6.93;4.70;;;;;;;7.07;100.00;100575.34;5095872;28;20691;-74
2023/12/16 10:40:03;;;;;;;5.00;4.50;;;;;;;7.10;100.00;100584.81;5096242;28;20589;-74
2023/12/16 10:42:30;;;;;;;5.37;4.80;;;;;;;6.96;100.00;100579.88;5096102;28;20204;-74
2023/12/16 10:44:56;;;;;;;5.90;5.30;;;;;;;7.17;100.00;100576.19;5095627;28;20200;-74
2023/12/16 10:47:27;;;;;;;6.40;5.13;;;;;;;6.91;100.00;100563.56;5095849;28;20222;-74
2023/12/16 10:49:58;;;;;;;5.73;5.07;;;;;;;7.05;100.00;100557.91;5095806;28;20255;-74
2023/12/16 10:52:25;;;;;;;5.40;4.90;;;;;;;7.10;100.00;100553.06;5095353;28;20191;-74
2023/12/16 10:54:58;;;;;;;6.33;5.10;;;;;;;7.12;100.00;100551.09;5094936;28;20203;-74
2023/12/16 10:57:49;;;;;;;6.63;5.00;;;;;;;7.11;100.00;100550.25;5095477;28;20242;-74
2023/12/16 11:00:23;;;;;;;6.03;5.40;;;;;;;7.11;100.00;100557.38;5095625;28;20585;-74
2023/12/16 11:03:13;;;;;;;6.30;4.83;;;;;;;6.88;100.00;100555.94;5096696;28;20208;-74
2023/12/16 11:05:46;;;;;;;7.20;4.90;;;;;;;7.12;100.00;100551.09;5095860;28;20200;-74
2023/12/16 11:08:13;;;;;;;8.00;5.17;;;;;;;7.02;100.00;100564.28;5095615;28;20193;-74
2023/12/16 11:10:40;;;;;;;7.43;5.23;;;;;;;7.00;100.00;100562.75;5095125;28;20258;-74
2023/12/16 11:13:07;;;;;;;8.57;5.67;;;;;;;7.01;100.00;100554.69;5095296;28;20310;-74
2023/12/16 11:15:35;;;;;;;8.03;4.77;;;;;;;7.06;100.00;100549.03;5095447;28;20204;-74
2023/12/16 11:18:28;;;;;;;6.00;4.90;;;;;;;7.19;100.00;100560.19;5095070;28;20681;-74
2023/12/16 11:20:56;;;;;;;5.97;4.77;;;;;;;7.21;100.00;100561.72;5095236;28;20283;-74
2023/12/16 11:23:28;;;;;;;7.03;4.70;;;;;;;7.22;100.00;100557.25;5095423;28;20205;-74